sensor_id;sensor_type;location;lat;lon;timestamp;pressure;altitude;pressure_sealevel;temperature;humidity
79752;BME280;69234;47.446;21.636;2023-05-14T00:00:03;101109.31;;;8.90;82.52
79752;BME280;69234;47.446;21.636;2023-05-14T00:00:36;101107.59;;;8.89;83.00
79752;BME280;69234;47.446;21.636;2023-05-14T00:01:07;101114.88;;;8.87;82.39
79752;BME280;69234;47.446;21.636;2023-05-14T00:01:40;101102.44;;;8.86;82.83
79752;BME280;69234;47.446;21.636;2023-05-14T00:02:11;101103.28;;;8.86;82.82
79752;BME280;69234;47.446;21.636;2023-05-14T00:02:41;101105.91;;;8.88;82.70
79752;BME280;69234;47.446;21.636;2023-05-14T00:03:12;101104.16;;;8.87;82.21
79752;BME280;69234;47.446;21.636;2023-05-14T00:03:43;101096.34;;;8.84;82.49
79752;BME280;69234;47.446;21.636;2023-05-14T00:04:13;101092.13;;;8.79;83.10
79752;BME280;69234;47.446;21.636;2023-05-14T00:04:44;101103.41;;;8.85;82.94
79752;BME280;69234;47.446;21.636;2023-05-14T00:05:15;101097.28;;;8.82;83.27
79752;BME280;69234;47.446;21.636;2023-05-14T00:05:47;101101.59;;;8.85;83.04
79752;BME280;69234;47.446;21.636;2023-05-14T00:06:18;101097.28;;;8.82;83.01
79752;BME280;69234;47.446;21.636;2023-05-14T00:06:48;101097.41;;;8.81;82.60
79752;BME280;69234;47.446;21.636;2023-05-14T00:07:19;101099.13;;;8.82;82.97
79752;BME280;69234;47.446;21.636;2023-05-14T00:07:50;101085.91;;;8.79;82.41
79752;BME280;69234;47.446;21.636;2023-05-14T00:08:21;101093.88;;;8.80;82.94
79752;BME280;69234;47.446;21.636;2023-05-14T00:08:51;101096.44;;;8.82;83.09
79752;BME280;69234;47.446;21.636;2023-05-14T00:09:22;101096.44;;;8.82;82.33
79752;BME280;69234;47.446;21.636;2023-05-14T00:09:53;101092.78;;;8.83;82.85
79752;BME280;69234;47.446;21.636;2023-05-14T00:10:23;101103.63;;;8.81;83.06
79752;BME280;69234;47.446;21.636;2023-05-14T00:10:54;101093.88;;;8.80;82.08
79752;BME280;69234;47.446;21.636;2023-05-14T00:11:25;101090.34;;;8.80;82.96
79752;BME280;69234;47.446;21.636;2023-05-14T00:11:55;101089.56;;;8.78;83.14
79752;BME280;69234;47.446;21.636;2023-05-14T00:12:26;101093.88;;;8.80;82.40
79752;BME280;69234;47.446;21.636;2023-05-14T00:12:57;101091.41;;;8.77;83.21
79752;BME280;69234;47.446;21.636;2023-05-14T00:13:28;101101.91;;;8.80;82.89
79752;BME280;69234;47.446;21.636;2023-05-14T00:13:58;101095.69;;;8.80;82.49
79752;BME280;69234;47.446;21.636;2023-05-14T00:14:29;101094.06;;;8.77;82.65
79752;BME280;69234;47.446;21.636;2023-05-14T00:15:01;101092.13;;;8.79;83.13
79752;BME280;69234;47.446;21.636;2023-05-14T00:15:31;101096.84;;;8.76;82.42
79752;BME280;69234;47.446;21.636;2023-05-14T00:16:02;101085.66;;;8.69;82.88
79752;BME280;69234;47.446;21.636;2023-05-14T00:16:33;101093.94;;;8.79;82.50
79752;BME280;69234;47.446;21.636;2023-05-14T00:17:04;101095.91;;;8.77;82.41
79752;BME280;69234;47.446;21.636;2023-05-14T00:17:36;101104.88;;;8.76;82.99
79752;BME280;69234;47.446;21.636;2023-05-14T00:18:07;101093.41;;;8.74;83.36
79752;BME280;69234;47.446;21.636;2023-05-14T00:18:41;101099.63;;;8.74;82.41
79752;BME280;69234;47.446;21.636;2023-05-14T00:19:12;101103.16;;;8.75;82.47
79752;BME280;69234;47.446;21.636;2023-05-14T00:19:43;101098.84;;;8.72;83.21
79752;BME280;69234;47.446;21.636;2023-05-14T00:20:13;101102.31;;;8.74;82.89
79752;BME280;69234;47.446;21.636;2023-05-14T00:20:44;101096.19;;;8.72;82.57
79752;BME280;69234;47.446;21.636;2023-05-14T00:21:15;101084.34;;;8.62;83.14
79752;BME280;69234;47.446;21.636;2023-05-14T00:21:47;101091.91;;;8.70;82.79
79752;BME280;69234;47.446;21.636;2023-05-14T00:22:18;101098.13;;;8.70;82.75
79752;BME280;69234;47.446;21.636;2023-05-14T00:22:48;101092.00;;;8.68;83.08
79752;BME280;69234;47.446;21.636;2023-05-14T00:23:20;101100.88;;;8.69;82.68
79752;BME280;69234;47.446;21.636;2023-05-14T00:23:51;101085.97;;;8.65;82.41
79752;BME280;69234;47.446;21.636;2023-05-14T00:24:22;101092.97;;;8.67;82.71
79752;BME280;69234;47.446;21.636;2023-05-14T00:24:53;101091.03;;;8.69;82.61
79752;BME280;69234;47.446;21.636;2023-05-14T00:25:23;101095.72;;;8.66;82.80
79752;BME280;69234;47.446;21.636;2023-05-14T00:25:54;101097.34;;;8.68;82.73
79752;BME280;69234;47.446;21.636;2023-05-14T00:26:25;101089.50;;;8.65;82.46
79752;BME280;69234;47.446;21.636;2023-05-14T00:26:56;101093.94;;;8.66;82.54
79752;BME280;69234;47.446;21.636;2023-05-14T00:27:27;101095.84;;;8.64;83.34
79752;BME280;69234;47.446;21.636;2023-05-14T00:27:57;101087.69;;;8.66;83.05
79752;BME280;69234;47.446;21.636;2023-05-14T00:28:28;101086.09;;;8.63;82.72
79752;BME280;69234;47.446;21.636;2023-05-14T00:28:59;101086.19;;;8.62;82.84
79752;BME280;69234;47.446;21.636;2023-05-14T00:29:30;101086.09;;;8.63;82.87
79752;BME280;69234;47.446;21.636;2023-05-14T00:30:03;101080.94;;;8.60;83.19
79752;BME280;69234;47.446;21.636;2023-05-14T00:30:34;101092.31;;;8.64;83.08
79752;BME280;69234;47.446;21.636;2023-05-14T00:31:05;101086.28;;;8.60;83.47
79752;BME280;69234;47.446;21.636;2023-05-14T00:31:35;101085.31;;;8.61;82.92
79752;BME280;69234;47.446;21.636;2023-05-14T00:32:07;101090.78;;;8.60;82.84
79752;BME280;69234;47.446;21.636;2023-05-14T00:32:37;101089.06;;;8.58;82.97
79752;BME280;69234;47.446;21.636;2023-05-14T00:33:08;101083.63;;;8.60;83.44
79752;BME280;69234;47.446;21.636;2023-05-14T00:33:39;101078.34;;;8.58;82.80
79752;BME280;69234;47.446;21.636;2023-05-14T00:34:10;101081.31;;;8.54;82.98
79752;BME280;69234;47.446;21.636;2023-05-14T00:34:40;101082.28;;;8.53;82.97
79752;BME280;69234;47.446;21.636;2023-05-14T00:35:11;101074.34;;;8.51;83.65
79752;BME280;69234;47.446;21.636;2023-05-14T00:35:42;101077.13;;;8.50;83.20
79752;BME280;69234;47.446;21.636;2023-05-14T00:36:13;101089.66;;;8.49;82.76
79752;BME280;69234;47.446;21.636;2023-05-14T00:36:44;101080.56;;;8.52;82.99
79752;BME280;69234;47.446;21.636;2023-05-14T00:37:14;101079.81;;;8.50;82.94
79752;BME280;69234;47.446;21.636;2023-05-14T00:37:45;101072.09;;;8.45;83.49
79752;BME280;69234;47.446;21.636;2023-05-14T00:38:16;101081.63;;;8.49;83.34
79752;BME280;69234;47.446;21.636;2023-05-14T00:38:49;101073.88;;;8.45;83.58
79752;BME280;69234;47.446;21.636;2023-05-14T00:39:19;101075.72;;;8.44;83.28
79752;BME280;69234;47.446;21.636;2023-05-14T00:39:50;101079.25;;;8.45;83.66
79752;BME280;69234;47.446;21.636;2023-05-14T00:40:25;101084.50;;;8.46;83.72
79752;BME280;69234;47.446;21.636;2023-05-14T00:40:57;101074.97;;;8.42;83.41
79752;BME280;69234;47.446;21.636;2023-05-14T00:41:27;101077.53;;;8.44;83.04
79752;BME280;69234;47.446;21.636;2023-05-14T00:41:58;101081.19;;;8.43;83.67
79752;BME280;69234;47.446;21.636;2023-05-14T00:42:29;101076.78;;;8.42;83.63
79752;BME280;69234;47.446;21.636;2023-05-14T00:43:00;101076.78;;;8.42;84.08
79752;BME280;69234;47.446;21.636;2023-05-14T00:43:30;101073.34;;;8.40;83.47
79752;BME280;69234;47.446;21.636;2023-05-14T00:44:03;101067.28;;;8.36;83.54
79752;BME280;69234;47.446;21.636;2023-05-14T00:44:34;101071.78;;;8.36;83.89
79752;BME280;69234;47.446;21.636;2023-05-14T00:45:06;101074.34;;;8.37;84.13
79752;BME280;69234;47.446;21.636;2023-05-14T00:45:37;101075.41;;;8.34;83.19
79752;BME280;69234;47.446;21.636;2023-05-14T00:46:08;101077.16;;;8.36;83.64
79752;BME280;69234;47.446;21.636;2023-05-14T00:46:41;101070.06;;;8.34;83.95
79752;BME280;69234;47.446;21.636;2023-05-14T00:47:13;101072.97;;;8.31;84.34
79752;BME280;69234;47.446;21.636;2023-05-14T00:47:44;101067.59;;;8.31;83.83
79752;BME280;69234;47.446;21.636;2023-05-14T00:48:15;101073.03;;;8.30;84.06
79752;BME280;69234;47.446;21.636;2023-05-14T00:48:46;101074.75;;;8.31;84.14
79752;BME280;69234;47.446;21.636;2023-05-14T00:49:17;101077.34;;;8.32;83.48
79752;BME280;69234;47.446;21.636;2023-05-14T00:49:47;101073.16;;;8.28;83.80
79752;BME280;69234;47.446;21.636;2023-05-14T00:50:19;101070.47;;;8.28;83.38
79752;BME280;69234;47.446;21.636;2023-05-14T00:50:50;101068.00;;;8.25;83.98
79752;BME280;69234;47.446;21.636;2023-05-14T00:51:21;101068.00;;;8.25;83.78
79752;BME280;69234;47.446;21.636;2023-05-14T00:51:52;101070.66;;;8.25;83.29
79752;BME280;69234;47.446;21.636;2023-05-14T00:52:24;101071.53;;;8.26;83.52
79752;BME280;69234;47.446;21.636;2023-05-14T00:52:55;101072.38;;;8.26;83.84
79752;BME280;69234;47.446;21.636;2023-05-14T00:53:26;101067.13;;;8.25;83.44
79752;BME280;69234;47.446;21.636;2023-05-14T00:53:57;101070.47;;;8.28;84.12
79752;BME280;69234;47.446;21.636;2023-05-14T00:54:28;101067.88;;;8.27;83.33
79752;BME280;69234;47.446;21.636;2023-05-14T00:55:03;101068.19;;;8.22;83.77
79752;BME280;69234;47.446;21.636;2023-05-14T00:55:41;101064.47;;;8.25;84.34
79752;BME280;69234;47.446;21.636;2023-05-14T00:56:13;101068.00;;;8.25;83.89
79752;BME280;69234;47.446;21.636;2023-05-14T00:56:46;101063.50;;;8.26;83.96
79752;BME280;69234;47.446;21.636;2023-05-14T00:57:17;101063.03;;;8.19;84.44
79752;BME280;69234;47.446;21.636;2023-05-14T00:57:49;101068.19;;;8.22;83.76
79752;BME280;69234;47.446;21.636;2023-05-14T00:58:21;101067.41;;;8.20;83.81
79752;BME280;69234;47.446;21.636;2023-05-14T00:58:52;101071.72;;;8.23;84.26
79752;BME280;69234;47.446;21.636;2023-05-14T00:59:22;101067.34;;;8.22;83.60
79752;BME280;69234;47.446;21.636;2023-05-14T00:59:53;101068.28;;;8.21;84.21
79752;BME280;69234;47.446;21.636;2023-05-14T01:00:24;101070.88;;;8.22;83.38
79752;BME280;69234;47.446;21.636;2023-05-14T01:00:55;101066.88;;;8.15;83.61
79752;BME280;69234;47.446;21.636;2023-05-14T01:01:26;101071.16;;;8.18;83.99
79752;BME280;69234;47.446;21.636;2023-05-14T01:01:58;101067.59;;;8.17;84.24
79752;BME280;69234;47.446;21.636;2023-05-14T01:02:28;101074.03;;;8.15;83.90
79752;BME280;69234;47.446;21.636;2023-05-14T01:02:59;101073.94;;;8.16;84.60
79752;BME280;69234;47.446;21.636;2023-05-14T01:03:31;101065.03;;;8.16;84.51
79752;BME280;69234;47.446;21.636;2023-05-14T01:04:03;101066.94;;;8.14;84.51
79752;BME280;69234;47.446;21.636;2023-05-14T01:04:36;101069.63;;;8.14;84.19
79752;BME280;69234;47.446;21.636;2023-05-14T01:05:08;101066.09;;;8.13;84.43
79752;BME280;69234;47.446;21.636;2023-05-14T01:10:15;101065.44;;;8.09;84.85
79752;BME280;69234;47.446;21.636;2023-05-14T01:10:54;101068.09;;;8.09;84.64
79752;BME280;69234;47.446;21.636;2023-05-14T01:14:33;101067.34;;;8.07;84.27
79752;BME280;69234;47.446;21.636;2023-05-14T01:15:11;101076.06;;;8.11;83.96
79752;BME280;69234;47.446;21.636;2023-05-14T01:15:44;101072.59;;;8.09;84.62
79752;BME280;69234;47.446;21.636;2023-05-14T01:16:18;101067.25;;;8.09;84.77
79752;BME280;69234;47.446;21.636;2023-05-14T01:16:53;101067.34;;;8.07;84.75
79752;BME280;69234;47.446;21.636;2023-05-14T01:17:28;101061.25;;;8.05;84.33
79752;BME280;69234;47.446;21.636;2023-05-14T01:18:10;101068.59;;;8.02;85.09
79752;BME280;69234;47.446;21.636;2023-05-14T01:18:45;101054.44;;;8.00;84.11
79752;BME280;69234;47.446;21.636;2023-05-14T01:19:39;101072.06;;;8.04;84.24
79752;BME280;69234;47.446;21.636;2023-05-14T01:20:10;101057.03;;;8.01;84.40
79752;BME280;69234;47.446;21.636;2023-05-14T01:20:44;101062.28;;;8.03;84.58
79752;BME280;69234;47.446;21.636;2023-05-14T01:21:39;101061.34;;;8.04;84.46
79752;BME280;69234;47.446;21.636;2023-05-14T01:22:12;101070.13;;;8.06;84.72
79752;BME280;69234;47.446;21.636;2023-05-14T01:22:43;101062.09;;;8.06;84.12
79752;BME280;69234;47.446;21.636;2023-05-14T01:23:14;101061.13;;;8.07;84.11
79752;BME280;69234;47.446;21.636;2023-05-14T01:23:45;101062.19;;;8.04;84.66
79752;BME280;69234;47.446;21.636;2023-05-14T01:24:15;101064.75;;;8.06;84.29
79752;BME280;69234;47.446;21.636;2023-05-14T01:24:46;101054.19;;;8.04;83.93
79752;BME280;69234;47.446;21.636;2023-05-14T01:25:17;101059.41;;;8.06;84.70
79752;BME280;69234;47.446;21.636;2023-05-14T01:25:48;101054.25;;;8.03;84.87
79752;BME280;69234;47.446;21.636;2023-05-14T01:26:19;101052.75;;;7.99;85.01
79752;BME280;69234;47.446;21.636;2023-05-14T01:26:52;101044.16;;;7.94;84.30
79752;BME280;69234;47.446;21.636;2023-05-14T01:28:32;101062.41;;;8.01;84.24
79752;BME280;69234;47.446;21.636;2023-05-14T01:29:31;101055.34;;;8.00;84.65
79752;BME280;69234;47.446;21.636;2023-05-14T01:30:41;101049.41;;;7.95;84.49
79752;BME280;69234;47.446;21.636;2023-05-14T01:31:18;101050.06;;;7.99;84.82
79752;BME280;69234;47.446;21.636;2023-05-14T01:31:56;101050.84;;;8.01;84.09
79752;BME280;69234;47.446;21.636;2023-05-14T01:32:29;101050.06;;;7.99;84.77
79752;BME280;69234;47.446;21.636;2023-05-14T01:33:05;101054.44;;;8.00;84.42
79752;BME280;69234;47.446;21.636;2023-05-14T01:33:41;101052.75;;;7.99;84.50
79752;BME280;69234;47.446;21.636;2023-05-14T01:34:14;101057.91;;;8.02;84.37
79752;BME280;69234;47.446;21.636;2023-05-14T01:34:46;101055.41;;;7.99;84.11
79752;BME280;69234;47.446;21.636;2023-05-14T01:35:26;101041.56;;;7.92;84.86
79752;BME280;69234;47.446;21.636;2023-05-14T01:35:59;101055.53;;;7.97;84.44
79752;BME280;69234;47.446;21.636;2023-05-14T01:36:30;101049.31;;;7.97;84.90
79752;BME280;69234;47.446;21.636;2023-05-14T01:37:03;101051.09;;;7.96;84.55
79752;BME280;69234;47.446;21.636;2023-05-14T01:37:35;101050.25;;;7.96;85.04
79752;BME280;69234;47.446;21.636;2023-05-14T01:38:12;101051.22;;;7.95;84.40
79752;BME280;69234;47.446;21.636;2023-05-14T01:38:43;101051.09;;;7.96;84.52
79752;BME280;69234;47.446;21.636;2023-05-14T01:39:18;101054.75;;;7.95;84.86
79752;BME280;69234;47.446;21.636;2023-05-14T01:39:50;101046.06;;;7.92;85.10
79752;BME280;69234;47.446;21.636;2023-05-14T01:40:22;101059.34;;;7.93;84.72
79752;BME280;69234;47.446;21.636;2023-05-14T01:40:56;101047.69;;;7.94;84.95
79752;BME280;69234;47.446;21.636;2023-05-14T01:41:28;101052.19;;;7.94;84.40
79752;BME280;69234;47.446;21.636;2023-05-14T01:42:01;101052.06;;;7.95;84.83
79752;BME280;69234;47.446;21.636;2023-05-14T01:42:32;101053.13;;;7.93;84.43
79752;BME280;69234;47.446;21.636;2023-05-14T01:43:03;101034.88;;;7.85;85.04
79752;BME280;69234;47.446;21.636;2023-05-14T01:43:36;101057.63;;;7.92;84.44
79752;BME280;69234;47.446;21.636;2023-05-14T01:44:10;101050.44;;;7.93;84.31
79752;BME280;69234;47.446;21.636;2023-05-14T01:44:42;101048.66;;;7.93;84.83
79752;BME280;69234;47.446;21.636;2023-05-14T01:45:12;101051.22;;;7.95;84.56
79752;BME280;69234;47.446;21.636;2023-05-14T01:45:43;101052.06;;;7.95;84.67
79752;BME280;69234;47.446;21.636;2023-05-14T01:46:18;101049.50;;;7.94;84.59
79752;BME280;69234;47.446;21.636;2023-05-14T01:46:49;101061.06;;;7.94;85.08
79752;BME280;69234;47.446;21.636;2023-05-14T01:47:19;101046.06;;;7.92;84.67
79752;BME280;69234;47.446;21.636;2023-05-14T01:47:51;101037.25;;;7.90;84.61
79752;BME280;69234;47.446;21.636;2023-05-14T01:48:22;101048.53;;;7.95;84.49
79752;BME280;69234;47.446;21.636;2023-05-14T01:48:52;101038.81;;;7.94;85.04
79752;BME280;69234;47.446;21.636;2023-05-14T01:49:23;101052.06;;;7.95;84.69
79752;BME280;69234;47.446;21.636;2023-05-14T01:49:54;101047.59;;;7.96;84.55
79752;BME280;69234;47.446;21.636;2023-05-14T01:50:25;101043.19;;;7.95;84.77
79752;BME280;69234;47.446;21.636;2023-05-14T01:50:56;101048.34;;;7.98;84.51
79752;BME280;69234;47.446;21.636;2023-05-14T01:51:26;101043.84;;;7.98;85.15
79752;BME280;69234;47.446;21.636;2023-05-14T01:51:57;101043.75;;;8.00;84.21
79752;BME280;69234;47.446;21.636;2023-05-14T01:52:28;101043.84;;;7.98;84.43
79752;BME280;69234;47.446;21.636;2023-05-14T01:52:59;101044.63;;;8.00;84.50
79752;BME280;69234;47.446;21.636;2023-05-14T01:53:31;101037.72;;;7.96;85.21
79752;BME280;69234;47.446;21.636;2023-05-14T01:54:04;101052.56;;;8.02;84.86
79752;BME280;69234;47.446;21.636;2023-05-14T01:54:35;101041.06;;;8.00;84.29
79752;BME280;69234;47.446;21.636;2023-05-14T01:55:06;101043.97;;;7.97;84.43
79752;BME280;69234;47.446;21.636;2023-05-14T01:55:37;101052.56;;;8.02;84.52
79752;BME280;69234;47.446;21.636;2023-05-14T01:56:08;101044.53;;;8.02;84.83
79752;BME280;69234;47.446;21.636;2023-05-14T01:56:39;101031.34;;;7.99;84.80
79752;BME280;69234;47.446;21.636;2023-05-14T01:57:10;101042.03;;;7.99;84.67
79752;BME280;69234;47.446;21.636;2023-05-14T01:57:41;101049.00;;;8.01;84.96
79752;BME280;69234;47.446;21.636;2023-05-14T01:58:11;101047.19;;;8.02;84.54
79752;BME280;69234;47.446;21.636;2023-05-14T01:58:42;101041.00;;;8.01;84.49
79752;BME280;69234;47.446;21.636;2023-05-14T01:59:13;101036.69;;;7.99;84.00
79752;BME280;69234;47.446;21.636;2023-05-14T01:59:44;101049.09;;;8.00;84.39
79752;BME280;69234;47.446;21.636;2023-05-14T02:00:15;101041.19;;;7.98;84.34
79752;BME280;69234;47.446;21.636;2023-05-14T02:00:46;101031.25;;;8.00;84.32
79752;BME280;69234;47.446;21.636;2023-05-14T02:01:16;101041.84;;;8.02;84.82
79752;BME280;69234;47.446;21.636;2023-05-14T02:01:47;101037.34;;;8.02;84.31
79752;BME280;69234;47.446;21.636;2023-05-14T02:02:18;101042.69;;;8.02;84.27
79752;BME280;69234;47.446;21.636;2023-05-14T02:02:49;101043.66;;;8.01;84.81
79752;BME280;69234;47.446;21.636;2023-05-14T02:03:20;101047.19;;;8.02;84.82
79752;BME280;69234;47.446;21.636;2023-05-14T02:03:51;101047.19;;;8.02;84.81
79752;BME280;69234;47.446;21.636;2023-05-14T02:04:22;101044.53;;;8.02;84.63
79752;BME280;69234;47.446;21.636;2023-05-14T02:04:52;101047.19;;;8.02;84.34
79752;BME280;69234;47.446;21.636;2023-05-14T02:05:23;101041.84;;;8.02;84.34
79752;BME280;69234;47.446;21.636;2023-05-14T02:05:54;101043.56;;;8.03;84.74
79752;BME280;69234;47.446;21.636;2023-05-14T02:06:25;101047.19;;;8.02;84.90
79752;BME280;69234;47.446;21.636;2023-05-14T02:06:56;101038.41;;;8.00;84.95
79752;BME280;69234;47.446;21.636;2023-05-14T02:07:28;101035.72;;;8.00;84.51
79752;BME280;69234;47.446;21.636;2023-05-14T02:07:59;101034.78;;;8.01;84.19
79752;BME280;69234;47.446;21.636;2023-05-14T02:08:30;101044.41;;;8.03;84.74
79752;BME280;69234;47.446;21.636;2023-05-14T02:09:03;101042.63;;;8.04;84.14
79752;BME280;69234;47.446;21.636;2023-05-14T02:09:34;101041.66;;;8.05;84.36
79752;BME280;69234;47.446;21.636;2023-05-14T02:10:06;101040.88;;;8.03;84.90
79752;BME280;69234;47.446;21.636;2023-05-14T02:10:37;101039.94;;;8.04;84.05
79752;BME280;69234;47.446;21.636;2023-05-14T02:11:08;101036.50;;;8.02;84.82
79752;BME280;69234;47.446;21.636;2023-05-14T02:11:39;101041.72;;;8.03;84.88
79752;BME280;69234;47.446;21.636;2023-05-14T02:12:10;101041.97;;;8.00;84.81
79752;BME280;69234;47.446;21.636;2023-05-14T02:12:41;101042.50;;;8.05;84.14
79752;BME280;69234;47.446;21.636;2023-05-14T02:13:12;101046.16;;;8.04;84.88
79752;BME280;69234;47.446;21.636;2023-05-14T02:13:42;101046.22;;;8.03;84.52
79752;BME280;69234;47.446;21.636;2023-05-14T02:14:13;101048.91;;;8.03;84.17
79752;BME280;69234;47.446;21.636;2023-05-14T02:14:44;101037.47;;;8.01;84.63
79752;BME280;69234;47.446;21.636;2023-05-14T02:15:15;101040.81;;;8.04;84.17
79752;BME280;69234;47.446;21.636;2023-05-14T02:15:46;101044.41;;;8.03;84.24
79752;BME280;69234;47.446;21.636;2023-05-14T02:16:17;101046.03;;;8.06;84.04
79752;BME280;69234;47.446;21.636;2023-05-14T02:16:48;101047.00;;;8.05;83.86
79752;BME280;69234;47.446;21.636;2023-05-14T02:17:20;101044.41;;;8.03;84.61
79752;BME280;69234;47.446;21.636;2023-05-14T02:17:51;101040.03;;;8.02;84.71
79752;BME280;69234;47.446;21.636;2023-05-14T02:18:22;101038.97;;;8.05;85.02
79752;BME280;69234;47.446;21.636;2023-05-14T02:18:53;101038.88;;;8.06;84.89
79752;BME280;69234;47.446;21.636;2023-05-14T02:19:23;101040.59;;;8.07;84.62
79752;BME280;69234;47.446;21.636;2023-05-14T02:19:54;101040.59;;;8.07;84.35
79752;BME280;69234;47.446;21.636;2023-05-14T02:20:25;101038.00;;;8.06;83.87
79752;BME280;69234;47.446;21.636;2023-05-14T02:20:56;101034.38;;;8.07;83.91
79752;BME280;69234;47.446;21.636;2023-05-14T02:21:27;101043.16;;;8.09;83.99
79752;BME280;69234;47.446;21.636;2023-05-14T02:21:58;101034.28;;;8.08;84.08
79752;BME280;69234;47.446;21.636;2023-05-14T02:22:31;101033.63;;;8.05;84.21
79752;BME280;69234;47.446;21.636;2023-05-14T02:23:02;101035.25;;;8.07;84.15
79752;BME280;69234;47.446;21.636;2023-05-14T02:23:32;101041.47;;;8.08;84.10
79752;BME280;69234;47.446;21.636;2023-05-14T02:24:03;101040.59;;;8.07;83.90
79752;BME280;69234;47.446;21.636;2023-05-14T02:24:34;101038.00;;;8.06;84.10
79752;BME280;69234;47.446;21.636;2023-05-14T02:25:05;101037.16;;;8.05;84.55
79752;BME280;69234;47.446;21.636;2023-05-14T02:25:37;101032.66;;;8.06;84.37
79752;BME280;69234;47.446;21.636;2023-05-14T02:26:09;101041.47;;;8.08;83.75
79752;BME280;69234;47.446;21.636;2023-05-14T02:26:40;101038.97;;;8.05;84.77
79752;BME280;69234;47.446;21.636;2023-05-14T02:27:11;101038.31;;;8.01;83.69
79752;BME280;69234;47.446;21.636;2023-05-14T02:27:42;101031.16;;;8.02;84.82
79752;BME280;69234;47.446;21.636;2023-05-14T02:28:13;101030.28;;;8.01;84.62
79752;BME280;69234;47.446;21.636;2023-05-14T02:28:44;101031.44;;;7.97;84.69
79752;BME280;69234;47.446;21.636;2023-05-14T02:29:16;101029.63;;;7.98;84.16
79752;BME280;69234;47.446;21.636;2023-05-14T02:29:47;101022.56;;;7.97;84.49
79752;BME280;69234;47.446;21.636;2023-05-14T02:30:18;101031.34;;;7.99;84.74
79752;BME280;69234;47.446;21.636;2023-05-14T02:30:49;101028.78;;;7.97;84.74
79752;BME280;69234;47.446;21.636;2023-05-14T02:31:19;101029.63;;;7.98;84.55
79752;BME280;69234;47.446;21.636;2023-05-14T02:31:50;101032.19;;;7.99;84.06
79752;BME280;69234;47.446;21.636;2023-05-14T02:32:21;101034.78;;;8.01;84.31
79752;BME280;69234;47.446;21.636;2023-05-14T02:32:52;101025.78;;;8.02;84.01
79752;BME280;69234;47.446;21.636;2023-05-14T02:33:22;101026.84;;;7.99;84.20
79752;BME280;69234;47.446;21.636;2023-05-14T02:33:53;101027.50;;;8.03;84.55
79752;BME280;69234;47.446;21.636;2023-05-14T02:34:24;101026.75;;;8.01;84.36
79752;BME280;69234;47.446;21.636;2023-05-14T02:34:54;101026.75;;;8.01;84.44
79752;BME280;69234;47.446;21.636;2023-05-14T02:35:25;101029.44;;;8.01;84.56
79752;BME280;69234;47.446;21.636;2023-05-14T02:35:56;101033.94;;;8.00;84.04
79752;BME280;69234;47.446;21.636;2023-05-14T02:36:27;101031.34;;;7.99;84.16
79752;BME280;69234;47.446;21.636;2023-05-14T02:36:57;101027.91;;;7.97;84.23
79752;BME280;69234;47.446;21.636;2023-05-14T02:37:28;101027.91;;;7.97;84.54
79752;BME280;69234;47.446;21.636;2023-05-14T02:37:59;101030.38;;;8.00;84.22
79752;BME280;69234;47.446;21.636;2023-05-14T02:38:31;101038.41;;;8.00;84.11
79752;BME280;69234;47.446;21.636;2023-05-14T02:39:01;101041.28;;;7.97;83.95
79752;BME280;69234;47.446;21.636;2023-05-14T02:39:34;101036.03;;;7.95;84.72
79752;BME280;69234;47.446;21.636;2023-05-14T02:40:05;101033.28;;;7.97;84.68
79752;BME280;69234;47.446;21.636;2023-05-14T02:40:36;101032.50;;;7.95;84.70
79752;BME280;69234;47.446;21.636;2023-05-14T02:41:07;101032.31;;;7.98;84.71
79752;BME280;69234;47.446;21.636;2023-05-14T02:41:38;101034.22;;;7.96;84.54
79752;BME280;69234;47.446;21.636;2023-05-14T02:42:09;101038.81;;;7.94;83.81
79752;BME280;69234;47.446;21.636;2023-05-14T02:42:40;101035.94;;;7.97;84.28
79752;BME280;69234;47.446;21.636;2023-05-14T02:43:10;101041.19;;;7.98;84.36
79752;BME280;69234;47.446;21.636;2023-05-14T02:43:41;101042.91;;;7.99;84.05
79752;BME280;69234;47.446;21.636;2023-05-14T02:44:12;101035.28;;;7.93;84.24
79752;BME280;69234;47.446;21.636;2023-05-14T02:44:43;101034.41;;;7.93;84.72
79752;BME280;69234;47.446;21.636;2023-05-14T02:45:14;101025.63;;;7.91;84.63
79752;BME280;69234;47.446;21.636;2023-05-14T02:45:46;101037.06;;;7.93;84.34
79752;BME280;69234;47.446;21.636;2023-05-14T02:46:16;101033.47;;;7.94;84.61
79752;BME280;69234;47.446;21.636;2023-05-14T02:46:47;101025.44;;;7.94;83.95
79752;BME280;69234;47.446;21.636;2023-05-14T02:47:18;101029.81;;;7.95;84.41
79752;BME280;69234;47.446;21.636;2023-05-14T02:47:49;101022.75;;;7.94;84.06
79752;BME280;69234;47.446;21.636;2023-05-14T02:48:20;101034.13;;;7.97;84.09
79752;BME280;69234;47.446;21.636;2023-05-14T02:48:50;101037.00;;;7.94;84.00
79752;BME280;69234;47.446;21.636;2023-05-14T02:49:21;101028.31;;;7.91;84.19
79752;BME280;69234;47.446;21.636;2023-05-14T02:49:52;101030.00;;;7.92;84.73
79752;BME280;69234;47.446;21.636;2023-05-14T02:50:22;101025.44;;;7.94;83.81
79752;BME280;69234;47.446;21.636;2023-05-14T02:50:53;101022.00;;;7.92;84.29
79752;BME280;69234;47.446;21.636;2023-05-14T02:51:24;101021.22;;;7.90;84.30
79752;BME280;69234;47.446;21.636;2023-05-14T02:51:55;101026.69;;;7.88;84.32
79752;BME280;69234;47.446;21.636;2023-05-14T02:52:26;101024.78;;;7.90;84.11
79752;BME280;69234;47.446;21.636;2023-05-14T02:52:57;101022.97;;;7.91;84.57
79752;BME280;69234;47.446;21.636;2023-05-14T02:53:28;101017.59;;;7.91;84.64
79752;BME280;69234;47.446;21.636;2023-05-14T02:53:59;101023.03;;;7.89;83.81
79752;BME280;69234;47.446;21.636;2023-05-14T02:54:29;101015.88;;;7.90;84.09
79752;BME280;69234;47.446;21.636;2023-05-14T02:55:01;101022.00;;;7.92;84.49